Zagreb — 9AA5910 — position and weather

sailwx.info

Track history (hours):
 
Tides and Currents Weather Stations Pressure Air Temp Water Temp Dewpoint Dewpoint Depression Visibility Wind Speed Wind Dir Waves Ship Positions

Zagreb

Last reported at 2018-Feb-19 17:05 UTC. Time now 2018-Feb-21 05:50 UTC.
Position N 60°28' E 028°20'.

Length 229 m; draft 8.3 m.

Type: Cargo ship. MMSI: 238249000.

Date/timePositionNaut miles runAvg speedWind from/ knotsBaromVisibWave heightAir tempDewpointWater temp
2018-Feb-19 17:05N 60°28' E 028°20'1 9.4
2018-Feb-19 17:01N 60°28' E 028°19'4 9.0
2018-Feb-19 16:30N 60°26' E 028°11'510.3
2018-Feb-19 16:00N 60°23' E 028°03'611.0
2018-Feb-19 15:30N 60°18' E 027°56'510.9
2018-Feb-19 15:01N 60°14' E 027°50'510.7
2018-Feb-19 14:30N 60°10' E 027°42'511.0
2018-Feb-19 14:00N 60°07' E 027°33'5 9.9
2018-Feb-19 13:29N 60°04' E 027°24'4 8.5
2018-Feb-19 13:01N 60°02' E 027°18'4 8.3
2018-Feb-19 12:30N 60°00' E 027°10'5 9.8
2018-Feb-19 12:00N 59°58' E 027°01'611.5
2018-Feb-19 11:31N 59°59' E 026°50'612.7
2018-Feb-19 11:00N 59°59' E 026°37'612.6
2018-Feb-19 10:31N 59°57' E 026°25'612.0
2018-Feb-19 10:01N 59°55' E 026°14'1312.8
2018-Feb-19 09:00N 59°53' E 025°49'612.8
2018-Feb-19 08:31N 59°52' E 025°36'612.8
2018-Feb-19 08:01N 59°50' E 025°24'713.1
2018-Feb-19 07:31N 59°48' E 025°12'613.0
2018-Feb-19 07:01N 59°47' E 024°59'713.1
2018-Feb-19 06:30N 59°46' E 024°46'713.1
2018-Feb-19 06:01N 59°45' E 024°33'713.4
2018-Feb-19 05:31N 59°43' E 024°20'612.9
2018-Feb-19 05:01N 59°41' E 024°08'713.0
2018-Feb-19 04:31N 59°39' E 023°56'713.4
2018-Feb-19 04:00N 59°37' E 023°44'713.5
2018-Feb-19 03:31N 59°35' E 023°31'713.1
2018-Feb-19 02:58N 59°32' E 023°18'613.6
2018-Feb-19 02:31N 59°30' E 023°06'29612.8
2018-Feb-18 03:17N 55°49' E 016°57'413.5
2018-Feb-18 03:01N 55°48' E 016°51'713.6
2018-Feb-18 02:30N 55°46' E 016°39'713.5
2018-Feb-18 02:01N 55°45' E 016°27'713.7
2018-Feb-18 01:31N 55°43' E 016°15'713.6
2018-Feb-18 01:01N 55°42' E 016°04'713.4
2018-Feb-18 00:31N 55°40' E 015°52'713.5
2018-Feb-18 00:00N 55°38' E 015°41'713.5
2018-Feb-17 23:31N 55°37' E 015°29'713.5
2018-Feb-17 23:01N 55°34' E 015°18'713.4
2018-Feb-17 22:31N 55°31' E 015°07'713.4
2018-Feb-17 22:00N 55°28' E 014°57'713.3
2018-Feb-17 21:31N 55°25' E 014°46'713.1
2018-Feb-17 21:01N 55°22' E 014°36'713.1
2018-Feb-17 20:30N 55°17' E 014°29'713.3
2018-Feb-17 20:00N 55°12' E 014°20'2013.3
2018-Feb-17 18:30N 55°10' E 013°46'1213.6
2018-Feb-17 17:36N 55°11' E 013°24'313.4
2018-Feb-17 17:22N 55°11' E 013°19'613.4
2018-Feb-17 16:56N 55°11' E 013°08'613.5
2018-Feb-17 16:30N 55°13' E 012°59'713.4
2018-Feb-17 15:59N 55°16' E 012°48'612.7
2018-Feb-17 15:30N 55°19' E 012°38'713.4
2018-Feb-17 15:00N 55°25' E 012°40'713.4
2018-Feb-17 14:30N 55°32' E 012°42'611.4
2018-Feb-17 14:00N 55°38' E 012°42'611.7
2018-Feb-17 13:30N 55°43' E 012°41'611.8
2018-Feb-17 13:00N 55°49' E 012°42'611.5
2018-Feb-17 12:30N 55°55' E 012°39'612.8
2018-Feb-17 12:00N 56°01' E 012°40'611.4
2018-Feb-17 11:30N 56°06' E 012°34'612.1
2018-Feb-17 11:00N 56°09' E 012°25'5 9.6
2018-Feb-17 10:30N 56°12' E 012°18'611.3
2018-Feb-17 10:00N 56°15' E 012°10'4313.0
2018-Feb-17 06:42N 56°56' E 011°45'313.1
2018-Feb-17 06:30N 56°58' E 011°43'613.2
2018-Feb-17 06:00N 57°05' E 011°39'713.3
2018-Feb-17 05:30N 57°11' E 011°35'713.0
2018-Feb-17 05:00N 57°17' E 011°31'612.7
2018-Feb-17 04:30N 57°23' E 011°26'612.0
2018-Feb-17 04:00N 57°28' E 011°22'612.5
2018-Feb-17 03:30N 57°32' E 011°13'612.1
2018-Feb-17 03:00N 57°37' E 011°05'612.7
2018-Feb-17 02:30N 57°41' E 010°57'713.8
2018-Feb-17 02:00N 57°46' E 010°47'714.1
2018-Feb-17 01:30N 57°47' E 010°34'714.6
2018-Feb-17 01:00N 57°47' E 010°20'16211.6
2018-Feb-16 11:01N 55°46' E 007°02'112.5
2018-Feb-16 10:58N 55°46' E 007°02'612.4
2018-Feb-16 10:31N 55°40' E 007°02'612.2
2018-Feb-16 10:00N 55°34' E 007°02'612.1
2018-Feb-16 09:30N 55°28' E 007°02'612.0
2018-Feb-16 09:00N 55°22' E 007°02'612.2
2018-Feb-16 08:30N 55°16' E 007°02'612.3
2018-Feb-16 08:00N 55°10' E 007°02'612.3
2018-Feb-16 07:30N 55°03' E 007°02'612.4
2018-Feb-16 07:00N 54°57' E 007°02'712.5
2018-Feb-16 06:28N 54°50' E 007°02'4912.0
2018-Feb-16 02:22N 54°08' E 007°44'513.8
2018-Feb-16 02:00N 54°05' E 007°52'913.6
2018-Feb-16 01:20N 54°01' E 008°06'412.6
2018-Feb-16 01:00N 54°01' E 008°13'511.1
2018-Feb-16 00:30N 53°60' E 008°22'612.3
2018-Feb-16 00:00N 53°58' E 008°32'510.5
2018-Feb-15 23:30N 53°56' E 008°40'5 9.7
2018-Feb-15 23:00N 53°52' E 008°45'4 8.7
2018-Feb-15 22:30N 53°50' E 008°52'4 8.5
2018-Feb-15 22:01N 53°51' E 008°59'5 9.6
2018-Feb-15 21:30N 53°53' E 009°07'3 7.0
2018-Feb-15 21:00N 53°53' E 009°13'612.8
2018-Feb-15 20:31N 53°49' E 009°22'714.0
2018-Feb-15 20:00N 53°43' E 009°28'713.5
2018-Feb-15 19:30N 53°37' E 009°33'612.9
2018-Feb-15 19:00N 53°34' E 009°42'1 1.8
2018-Feb-15 18:29N 53°34' E 009°44'0 0.0
2018-Feb-15 17:59N 53°34' E 009°44'0 0.0
2018-Feb-15 17:29N 53°34' E 009°44'0 0.0
2018-Feb-15 16:59N 53°34' E 009°44'0 0.0
2018-Feb-15 16:29N 53°34' E 009°44'0 0.0
2018-Feb-15 15:59N 53°34' E 009°44'0 0.0
2018-Feb-15 15:29N 53°34' E 009°44'0 0.0
2018-Feb-15 14:59N 53°34' E 009°44'0 0.0
2018-Feb-15 14:29N 53°34' E 009°44'0 0.0
2018-Feb-15 13:59N 53°34' E 009°44'0 0.0
2018-Feb-15 13:29N 53°34' E 009°44'0 0.0
2018-Feb-15 12:58N 53°34' E 009°44'0 0.0
2018-Feb-15 12:29N 53°34' E 009°44'0 0.0
2018-Feb-15 11:59N 53°34' E 009°44'0 0.0
2018-Feb-15 11:29N 53°34' E 009°44'0 0.0
2018-Feb-15 10:59N 53°34' E 009°44'0 0.0
2018-Feb-15 10:28N 53°34' E 009°44'0 0.0
2018-Feb-15 09:59N 53°34' E 009°44'0 0.0
2018-Feb-15 09:29N 53°34' E 009°44'0 0.0
2018-Feb-15 08:59N 53°34' E 009°44'0 0.0
2018-Feb-15 08:29N 53°34' E 009°44'0 0.0
2018-Feb-15 07:59N 53°34' E 009°44'0 0.0
2018-Feb-15 07:29N 53°34' E 009°44'0 0.0
2018-Feb-15 06:58N 53°34' E 009°44'0 0.0
2018-Feb-15 06:29N 53°34' E 009°44'0 0.0
2018-Feb-15 05:59N 53°34' E 009°44'0 0.0
2018-Feb-15 05:29N 53°34' E 009°44'0 0.0
2018-Feb-15 04:59N 53°34' E 009°44'0 0.0
2018-Feb-15 04:29N 53°34' E 009°44'0 0.0
2018-Feb-15 03:59N 53°34' E 009°44'0 0.0
2018-Feb-15 03:29N 53°34' E 009°44'0 0.0
2018-Feb-15 02:59N 53°34' E 009°44'0 0.0
2018-Feb-15 02:29N 53°34' E 009°44'0 0.0
2018-Feb-15 01:59N 53°34' E 009°44'0 0.0
2018-Feb-15 01:28N 53°34' E 009°44'0 0.0
2018-Feb-15 00:59N 53°34' E 009°44'0 0.0
2018-Feb-15 00:28N 53°34' E 009°44'0 0.0
2018-Feb-14 23:59N 53°34' E 009°44'0 0.0
2018-Feb-14 23:28N 53°34' E 009°44'0 0.0
2018-Feb-14 22:58N 53°34' E 009°44'0 0.0
2018-Feb-14 22:29N 53°34' E 009°44'0 0.0
2018-Feb-14 21:59N 53°34' E 009°44'0 0.0
2018-Feb-14 21:28N 53°34' E 009°44'0 0.0
2018-Feb-14 20:59N 53°34' E 009°44'0 0.0
2018-Feb-14 20:28N 53°34' E 009°44'0 0.0
2018-Feb-14 19:58N 53°34' E 009°44'0 0.0
2018-Feb-14 19:28N 53°34' E 009°44'0 0.0
2018-Feb-14 18:59N 53°34' E 009°44'0 0.0
2018-Feb-14 18:28N 53°34' E 009°44'0 0.0
2018-Feb-14 17:58N 53°34' E 009°44'0 0.0
2018-Feb-14 17:28N 53°34' E 009°44'0 0.0
2018-Feb-14 16:58N 53°34' E 009°44'0 0.0
2018-Feb-14 16:29N 53°34' E 009°44'0 0.0
2018-Feb-14 15:58N 53°34' E 009°44'0 0.0
2018-Feb-14 15:28N 53°34' E 009°44'0 0.0
2018-Feb-14 14:58N 53°34' E 009°44'0 0.0
2018-Feb-14 14:28N 53°34' E 009°44'0 0.0
2018-Feb-14 13:58N 53°34' E 009°44'0 0.0
2018-Feb-14 13:28N 53°34' E 009°44'0 0.0
2018-Feb-14 12:59N 53°34' E 009°44'0 0.0
2018-Feb-14 12:28N 53°34' E 009°44'0 0.0
2018-Feb-14 11:59N 53°34' E 009°44'0 0.0
2018-Feb-14 11:29N 53°34' E 009°44'0 0.0
2018-Feb-14 10:58N 53°34' E 009°44'0 0.0
2018-Feb-14 10:28N 53°34' E 009°44'0 0.0
2018-Feb-14 09:59N 53°34' E 009°44'0 0.0
2018-Feb-14 09:28N 53°34' E 009°44'0 0.0
2018-Feb-14 08:58N 53°34' E 009°44'0 0.0
2018-Feb-14 08:28N 53°34' E 009°44'0 0.0
2018-Feb-14 07:58N 53°34' E 009°44'0 0.0
2018-Feb-14 07:28N 53°34' E 009°44'0 0.0
2018-Feb-14 06:58N 53°34' E 009°44'0 0.0
2018-Feb-14 06:28N 53°34' E 009°44'0 0.0
2018-Feb-14 05:58N 53°34' E 009°44'0 0.0
2018-Feb-14 05:28N 53°34' E 009°44'0 0.0
2018-Feb-14 04:58N 53°34' E 009°44'0 0.0
2018-Feb-14 04:28N 53°34' E 009°44'0 0.0
2018-Feb-14 03:58N 53°34' E 009°44'0 0.0
2018-Feb-14 03:28N 53°34' E 009°44'0 0.0
2018-Feb-14 02:58N 53°34' E 009°44'0 0.0
2018-Feb-14 02:28N 53°34' E 009°44'0 0.0
2018-Feb-14 01:58N 53°34' E 009°44'0 0.0
2018-Feb-14 01:28N 53°34' E 009°44'0 0.0
2018-Feb-14 00:58N 53°34' E 009°44'0 0.0
2018-Feb-14 00:28N 53°34' E 009°44'0 0.0
2018-Feb-13 23:58N 53°34' E 009°44'0 0.0
2018-Feb-13 23:28N 53°34' E 009°44'0 0.0
2018-Feb-13 22:58N 53°34' E 009°44'0 0.0
2018-Feb-13 22:28N 53°34' E 009°44'0 0.0
2018-Feb-13 21:58N 53°34' E 009°44'0 0.0
2018-Feb-13 21:28N 53°34' E 009°44'0 0.0
2018-Feb-13 20:58N 53°34' E 009°44'0 0.0
2018-Feb-13 20:28N 53°34' E 009°44'0 0.0
2018-Feb-13 19:58N 53°34' E 009°44'0 0.0
2018-Feb-13 19:28N 53°34' E 009°44'0 0.0
2018-Feb-13 18:58N 53°34' E 009°44'0 0.0
2018-Feb-13 18:28N 53°34' E 009°44'0 0.0
2018-Feb-13 17:58N 53°34' E 009°44'0 0.0
2018-Feb-13 17:28N 53°34' E 009°44'0 0.0
2018-Feb-13 16:58N 53°34' E 009°44'0 0.0
2018-Feb-13 16:28N 53°34' E 009°44'0 0.0
2018-Feb-13 15:58N 53°34' E 009°44'0 0.0
2018-Feb-13 15:28N 53°34' E 009°44'0 0.0
2018-Feb-13 14:58N 53°34' E 009°44'0 0.0
2018-Feb-13 14:28N 53°34' E 009°44'0 0.0
2018-Feb-13 13:58N 53°34' E 009°44'0 0.0
2018-Feb-13 13:28N 53°34' E 009°44'0 0.0
2018-Feb-13 12:58N 53°34' E 009°44'0 0.0
2018-Feb-13 12:28N 53°34' E 009°44'0 0.0
2018-Feb-13 11:58N 53°34' E 009°44'0 0.0
2018-Feb-13 11:28N 53°34' E 009°44'0 0.0
2018-Feb-13 10:58N 53°34' E 009°44'0 0.0
2018-Feb-13 10:28N 53°34' E 009°44'0 0.0
2018-Feb-13 09:58N 53°34' E 009°44'0 0.0
2018-Feb-13 09:28N 53°34' E 009°44'0 0.0
2018-Feb-13 08:58N 53°34' E 009°44'0 0.0
2018-Feb-13 08:28N 53°34' E 009°44'0 0.0
2018-Feb-13 07:58N 53°34' E 009°44'0 0.0
2018-Feb-13 07:28N 53°34' E 009°44'0 0.0
2018-Feb-13 06:58N 53°34' E 009°44'0 0.0
2018-Feb-13 06:28N 53°34' E 009°44'0 0.0
2018-Feb-13 05:58N 53°34' E 009°44'0 0.0
2018-Feb-13 05:28N 53°34' E 009°44'0 0.0
2018-Feb-13 04:58N 53°34' E 009°44'0 0.0
2018-Feb-13 04:28N 53°34' E 009°44'0 0.0
2018-Feb-13 03:58N 53°34' E 009°44'0 0.0
2018-Feb-13 03:28N 53°34' E 009°44'0 0.0
2018-Feb-13 02:58N 53°34' E 009°44'0 0.0
2018-Feb-13 02:28N 53°34' E 009°44'0 0.0
2018-Feb-13 01:58N 53°34' E 009°44'0 0.0
2018-Feb-13 01:28N 53°34' E 009°44'0 0.0
2018-Feb-13 00:58N 53°34' E 009°44'0 0.0
2018-Feb-13 00:28N 53°34' E 009°44'0 0.0
2018-Feb-12 23:58N 53°34' E 009°44'0 0.0
2018-Feb-12 23:28N 53°34' E 009°44'0 0.0
2018-Feb-12 22:58N 53°34' E 009°44'0 0.0
2018-Feb-12 22:28N 53°34' E 009°44'0 0.0
2018-Feb-12 21:58N 53°34' E 009°44'0 0.0
2018-Feb-12 21:28N 53°34' E 009°44'0 0.0
2018-Feb-12 20:58N 53°34' E 009°44'0 0.0
2018-Feb-12 20:28N 53°34' E 009°44'0 0.0
2018-Feb-12 19:58N 53°34' E 009°44'0 0.0
2018-Feb-12 19:28N 53°34' E 009°44'0 0.0
2018-Feb-12 18:58N 53°34' E 009°44'0 0.0
2018-Feb-12 18:28N 53°34' E 009°44'0 0.0
2018-Feb-12 17:58N 53°34' E 009°44'0 0.0
2018-Feb-12 17:28N 53°34' E 009°44'0 0.0
2018-Feb-12 16:58N 53°34' E 009°44'0 0.0
2018-Feb-12 16:28N 53°34' E 009°44'0 0.0
2018-Feb-12 15:58N 53°34' E 009°44'0 0.0
2018-Feb-12 15:28N 53°34' E 009°44'0 0.0
2018-Feb-12 14:58N 53°34' E 009°44'0 0.0
2018-Feb-12 14:28N 53°34' E 009°44'0 0.0
2018-Feb-12 13:58N 53°34' E 009°44'0 0.0
2018-Feb-12 13:28N 53°34' E 009°44'0 0.0
2018-Feb-12 12:58N 53°34' E 009°44'0 0.0
2018-Feb-12 12:28N 53°34' E 009°44'0 0.0
2018-Feb-12 11:58N 53°34' E 009°44'0 0.0
2018-Feb-12 11:28N 53°34' E 009°44'0 0.0
2018-Feb-12 10:58N 53°34' E 009°44'0 0.0
2018-Feb-12 10:28N 53°34' E 009°44'0 0.0
2018-Feb-12 09:58N 53°34' E 009°44'0 0.0
2018-Feb-12 09:28N 53°34' E 009°44'0 0.0
2018-Feb-12 08:58N 53°34' E 009°44'0 0.0
2018-Feb-12 08:28N 53°34' E 009°44'0 0.0
2018-Feb-12 07:58N 53°34' E 009°44'0 0.0
2018-Feb-12 07:28N 53°34' E 009°44'0 0.0
2018-Feb-12 06:58N 53°34' E 009°44'0 0.0
2018-Feb-12 06:28N 53°34' E 009°44'0 0.0
2018-Feb-12 05:58N 53°34' E 009°44'0 0.0
2018-Feb-12 05:28N 53°34' E 009°44'0 0.0
2018-Feb-12 04:58N 53°34' E 009°44'0 0.0
2018-Feb-12 04:28N 53°34' E 009°44'0 0.0
2018-Feb-12 03:58N 53°34' E 009°44'0 0.0
2018-Feb-12 03:28N 53°34' E 009°44'0 0.0
2018-Feb-12 02:58N 53°34' E 009°44'0 0.0
2018-Feb-12 02:28N 53°34' E 009°44'0 0.0
2018-Feb-12 01:58N 53°34' E 009°44'0 0.0
2018-Feb-12 01:28N 53°34' E 009°44'0 0.0
2018-Feb-12 00:58N 53°34' E 009°44'0 0.0
2018-Feb-12 00:28N 53°34' E 009°44'0 0.0
2018-Feb-11 23:58N 53°34' E 009°44'0 0.0
2018-Feb-11 23:28N 53°34' E 009°44'0 0.0
2018-Feb-11 22:58N 53°34' E 009°44'0 0.0
2018-Feb-11 22:28N 53°34' E 009°44'0 0.0
2018-Feb-11 21:58N 53°34' E 009°44'0 0.0
2018-Feb-11 21:28N 53°34' E 009°44'0 0.0
2018-Feb-11 20:58N 53°34' E 009°44'0 0.0
2018-Feb-11 20:28N 53°34' E 009°44'0 0.0
2018-Feb-11 19:58N 53°34' E 009°44'0 0.0
2018-Feb-11 19:28N 53°34' E 009°44'0 0.0
2018-Feb-11 18:58N 53°34' E 009°44'0 0.0
2018-Feb-11 18:28N 53°34' E 009°44'0 0.0
2018-Feb-11 17:58N 53°34' E 009°44'0 0.0
2018-Feb-11 17:28N 53°34' E 009°44'0 0.0
2018-Feb-11 16:58N 53°34' E 009°44'0 0.0
2018-Feb-11 16:28N 53°34' E 009°44'0 0.0
2018-Feb-11 15:58N 53°34' E 009°44'0 0.0
2018-Feb-11 15:28N 53°34' E 009°44'0 0.0
2018-Feb-11 14:58N 53°34' E 009°44'0 0.0
2018-Feb-11 14:28N 53°34' E 009°44'0 0.0
2018-Feb-11 13:58N 53°34' E 009°44'0 0.0
2018-Feb-11 13:28N 53°34' E 009°44'0 0.0
2018-Feb-11 12:58N 53°34' E 009°44'0 0.0
2018-Feb-11 12:28N 53°34' E 009°44'0 0.0
2018-Feb-11 11:58N 53°34' E 009°44'0 0.0
2018-Feb-11 11:28N 53°34' E 009°44'0 0.0
2018-Feb-11 10:58N 53°34' E 009°44'0 0.0
2018-Feb-11 10:28N 53°34' E 009°44'0 0.0
2018-Feb-11 09:58N 53°34' E 009°44'0 0.0
2018-Feb-11 09:28N 53°34' E 009°44'0 0.0
2018-Feb-11 08:58N 53°34' E 009°44'0 0.0
2018-Feb-11 08:28N 53°34' E 009°44'0 0.0
2018-Feb-11 07:58N 53°34' E 009°44'0 0.0
2018-Feb-11 07:28N 53°34' E 009°44'0 0.0
2018-Feb-11 06:58N 53°34' E 009°44'0 0.0
2018-Feb-11 06:28N 53°34' E 009°44'0 0.0
2018-Feb-11 05:58N 53°34' E 009°44'0 0.0
2018-Feb-11 05:28N 53°34' E 009°44'0 0.0
2018-Feb-11 04:58N 53°34' E 009°44'0 0.0
2018-Feb-11 04:28N 53°34' E 009°44'0 0.0
2018-Feb-11 03:58N 53°34' E 009°44'0 0.0
2018-Feb-11 03:28N 53°34' E 009°44'0 0.0
2018-Feb-11 02:58N 53°34' E 009°44'0 0.0
2018-Feb-11 02:28N 53°34' E 009°44'0 0.0
2018-Feb-11 01:58N 53°34' E 009°44'0 0.0
2018-Feb-11 01:28N 53°34' E 009°44'0 0.0
2018-Feb-11 00:58N 53°34' E 009°44'0 0.0
2018-Feb-11 00:28N 53°34' E 009°44'0 0.0
2018-Feb-10 23:58N 53°34' E 009°44'0 0.0
2018-Feb-10 23:28N 53°34' E 009°44'0 0.0
2018-Feb-10 22:58N 53°34' E 009°44'0 0.0
2018-Feb-10 22:28N 53°34' E 009°44'0 0.0
2018-Feb-10 21:58N 53°34' E 009°44'0 0.0
2018-Feb-10 21:28N 53°34' E 009°44'0 0.0
2018-Feb-10 20:58N 53°34' E 009°44'0 0.0
2018-Feb-10 20:28N 53°34' E 009°44'0 0.0
2018-Feb-10 19:58N 53°34' E 009°44'0 0.0
2018-Feb-10 19:28N 53°34' E 009°44'0 0.0
2018-Feb-10 18:58N 53°34' E 009°44'0 0.0
2018-Feb-10 18:28N 53°34' E 009°44'0 0.0
2018-Feb-10 17:58N 53°34' E 009°44'0 0.0
2018-Feb-10 17:28N 53°34' E 009°44'0 0.0
2018-Feb-10 16:58N 53°34' E 009°44'0 0.0
2018-Feb-10 16:28N 53°34' E 009°44'0 0.0
2018-Feb-10 15:58N 53°34' E 009°44'0 0.0
2018-Feb-10 15:28N 53°34' E 009°44'0 0.0
2018-Feb-10 14:58N 53°34' E 009°44'0 0.0
2018-Feb-10 14:28N 53°34' E 009°44'0 0.0
2018-Feb-10 13:58N 53°34' E 009°44'0 0.0
2018-Feb-10 13:28N 53°34' E 009°44'0 0.0
2018-Feb-10 12:58N 53°34' E 009°44'0 0.0
2018-Feb-10 12:28N 53°34' E 009°44'0 0.0
2018-Feb-10 11:58N 53°34' E 009°44'0 0.0
2018-Feb-10 11:28N 53°34' E 009°44'0 0.0
2018-Feb-10 10:58N 53°34' E 009°44'0 0.0
2018-Feb-10 10:25N 53°34' E 009°44'0 0.0
2018-Feb-10 09:58N 53°34' E 009°44'0 0.0
2018-Feb-10 09:28N 53°34' E 009°44'0 0.0
2018-Feb-10 08:58N 53°34' E 009°44'0 0.0
2018-Feb-10 08:28N 53°34' E 009°44'0 0.0
2018-Feb-10 07:58N 53°34' E 009°44'0 0.0
2018-Feb-10 07:28N 53°34' E 009°44'0 0.0
2018-Feb-10 06:58N 53°34' E 009°44'0 0.0
2018-Feb-10 06:28N 53°34' E 009°44'0 0.0
2018-Feb-10 05:58N 53°34' E 009°44'0 0.0
2018-Feb-10 05:28N 53°34' E 009°44'0 0.0
2018-Feb-10 04:58N 53°34' E 009°44'0 0.0
2018-Feb-10 04:28N 53°34' E 009°44'0 0.0
2018-Feb-10 03:58N 53°34' E 009°44'0 0.0
2018-Feb-10 03:28N 53°34' E 009°44'0 0.0
2018-Feb-10 02:58N 53°34' E 009°44'0 0.0
2018-Feb-10 02:28N 53°34' E 009°44'0 0.0
2018-Feb-10 01:58N 53°34' E 009°44'0 0.0
2018-Feb-10 01:28N 53°34' E 009°44'0 0.0
2018-Feb-10 00:58N 53°34' E 009°44'0 0.0
2018-Feb-10 00:28N 53°34' E 009°44'0 0.0
2018-Feb-09 23:58N 53°34' E 009°44'0 0.0
2018-Feb-09 23:28N 53°34' E 009°44'0 0.0
2018-Feb-09 22:58N 53°34' E 009°44'0 0.0
2018-Feb-09 22:46N 53°34' E 009°44'  
Track history (hours):
 
Tides and Currents Weather Stations Pressure Air Temp Water Temp Dewpoint Dewpoint Depression Visibility Wind Speed Wind Dir Waves Ship Positions

Zagreb

Last reported at 2018-Feb-19 17:05 UTC. Time now 2018-Feb-21 05:50 UTC.
Position N 60°28' E 028°20'.

Length 229 m; draft 8.3 m.

Type: Cargo ship. MMSI: 238249000.

Date/timePositionNaut miles runAvg speedWind from/ knotsBaromVisibWave heightAir tempDewpointWater temp
2018-Feb-19 17:05N 60°28' E 028°20'1 9.4
2018-Feb-19 17:01N 60°28' E 028°19'4 9.0
2018-Feb-19 16:30N 60°26' E 028°11'510.3
2018-Feb-19 16:00N 60°23' E 028°03'611.0
2018-Feb-19 15:30N 60°18' E 027°56'510.9
2018-Feb-19 15:01N 60°14' E 027°50'510.7
2018-Feb-19 14:30N 60°10' E 027°42'511.0
2018-Feb-19 14:00N 60°07' E 027°33'5 9.9
2018-Feb-19 13:29N 60°04' E 027°24'4 8.5
2018-Feb-19 13:01N 60°02' E 027°18'4 8.3
2018-Feb-19 12:30N 60°00' E 027°10'5 9.8
2018-Feb-19 12:00N 59°58' E 027°01'611.5
2018-Feb-19 11:31N 59°59' E 026°50'612.7
2018-Feb-19 11:00N 59°59' E 026°37'612.6
2018-Feb-19 10:31N 59°57' E 026°25'612.0
2018-Feb-19 10:01N 59°55' E 026°14'1312.8
2018-Feb-19 09:00N 59°53' E 025°49'612.8
2018-Feb-19 08:31N 59°52' E 025°36'612.8
2018-Feb-19 08:01N 59°50' E 025°24'713.1
2018-Feb-19 07:31N 59°48' E 025°12'613.0
2018-Feb-19 07:01N 59°47' E 024°59'713.1
2018-Feb-19 06:30N 59°46' E 024°46'713.1
2018-Feb-19 06:01N 59°45' E 024°33'713.4
2018-Feb-19 05:31N 59°43' E 024°20'612.9
2018-Feb-19 05:01N 59°41' E 024°08'713.0
2018-Feb-19 04:31N 59°39' E 023°56'713.4
2018-Feb-19 04:00N 59°37' E 023°44'713.5
2018-Feb-19 03:31N 59°35' E 023°31'713.1
2018-Feb-19 02:58N 59°32' E 023°18'613.6
2018-Feb-19 02:31N 59°30' E 023°06'29612.8
2018-Feb-18 03:17N 55°49' E 016°57'413.5
2018-Feb-18 03:01N 55°48' E 016°51'713.6
2018-Feb-18 02:30N 55°46' E 016°39'713.5
2018-Feb-18 02:01N 55°45' E 016°27'713.7
2018-Feb-18 01:31N 55°43' E 016°15'713.6
2018-Feb-18 01:01N 55°42' E 016°04'713.4
2018-Feb-18 00:31N 55°40' E 015°52'713.5
2018-Feb-18 00:00N 55°38' E 015°41'713.5
2018-Feb-17 23:31N 55°37' E 015°29'713.5
2018-Feb-17 23:01N 55°34' E 015°18'713.4
2018-Feb-17 22:31N 55°31' E 015°07'713.4
2018-Feb-17 22:00N 55°28' E 014°57'713.3
2018-Feb-17 21:31N 55°25' E 014°46'713.1
2018-Feb-17 21:01N 55°22' E 014°36'713.1
2018-Feb-17 20:30N 55°17' E 014°29'713.3
2018-Feb-17 20:00N 55°12' E 014°20'2013.3
2018-Feb-17 18:30N 55°10' E 013°46'1213.6
2018-Feb-17 17:36N 55°11' E 013°24'313.4
2018-Feb-17 17:22N 55°11' E 013°19'613.4
2018-Feb-17 16:56N 55°11' E 013°08'613.5
2018-Feb-17 16:30N 55°13' E 012°59'713.4
2018-Feb-17 15:59N 55°16' E 012°48'612.7
2018-Feb-17 15:30N 55°19' E 012°38'713.4
2018-Feb-17 15:00N 55°25' E 012°40'713.4
2018-Feb-17 14:30N 55°32' E 012°42'611.4
2018-Feb-17 14:00N 55°38' E 012°42'611.7
2018-Feb-17 13:30N 55°43' E 012°41'611.8
2018-Feb-17 13:00N 55°49' E 012°42'611.5
2018-Feb-17 12:30N 55°55' E 012°39'612.8
2018-Feb-17 12:00N 56°01' E 012°40'611.4
2018-Feb-17 11:30N 56°06' E 012°34'612.1
2018-Feb-17 11:00N 56°09' E 012°25'5 9.6
2018-Feb-17 10:30N 56°12' E 012°18'611.3
2018-Feb-17 10:00N 56°15' E 012°10'4313.0
2018-Feb-17 06:42N 56°56' E 011°45'313.1
2018-Feb-17 06:30N 56°58' E 011°43'613.2
2018-Feb-17 06:00N 57°05' E 011°39'713.3
2018-Feb-17 05:30N 57°11' E 011°35'713.0
2018-Feb-17 05:00N 57°17' E 011°31'612.7
2018-Feb-17 04:30N 57°23' E 011°26'612.0
2018-Feb-17 04:00N 57°28' E 011°22'612.5
2018-Feb-17 03:30N 57°32' E 011°13'612.1
2018-Feb-17 03:00N 57°37' E 011°05'612.7
2018-Feb-17 02:30N 57°41' E 010°57'713.8
2018-Feb-17 02:00N 57°46' E 010°47'714.1
2018-Feb-17 01:30N 57°47' E 010°34'714.6
2018-Feb-17 01:00N 57°47' E 010°20'16211.6
2018-Feb-16 11:01N 55°46' E 007°02'112.5
2018-Feb-16 10:58N 55°46' E 007°02'612.4
2018-Feb-16 10:31N 55°40' E 007°02'612.2
2018-Feb-16 10:00N 55°34' E 007°02'612.1
2018-Feb-16 09:30N 55°28' E 007°02'612.0
2018-Feb-16 09:00N 55°22' E 007°02'612.2
2018-Feb-16 08:30N 55°16' E 007°02'612.3
2018-Feb-16 08:00N 55°10' E 007°02'612.3
2018-Feb-16 07:30N 55°03' E 007°02'612.4
2018-Feb-16 07:00N 54°57' E 007°02'712.5
2018-Feb-16 06:28N 54°50' E 007°02'4912.0
2018-Feb-16 02:22N 54°08' E 007°44'513.8
2018-Feb-16 02:00N 54°05' E 007°52'913.6
2018-Feb-16 01:20N 54°01' E 008°06'412.6
2018-Feb-16 01:00N 54°01' E 008°13'511.1
2018-Feb-16 00:30N 53°60' E 008°22'612.3
2018-Feb-16 00:00N 53°58' E 008°32'510.5
2018-Feb-15 23:30N 53°56' E 008°40'5 9.7
2018-Feb-15 23:00N 53°52' E 008°45'4 8.7
2018-Feb-15 22:30N 53°50' E 008°52'4 8.5
2018-Feb-15 22:01N 53°51' E 008°59'5 9.6
2018-Feb-15 21:30N 53°53' E 009°07'3 7.0
2018-Feb-15 21:00N 53°53' E 009°13'612.8
2018-Feb-15 20:31N 53°49' E 009°22'714.0
2018-Feb-15 20:00N 53°43' E 009°28'713.5
2018-Feb-15 19:30N 53°37' E 009°33'612.9
2018-Feb-15 19:00N 53°34' E 009°42'1 1.8
2018-Feb-15 18:29N 53°34' E 009°44'0 0.0
2018-Feb-15 17:59N 53°34' E 009°44'0 0.0
2018-Feb-15 17:29N 53°34' E 009°44'0 0.0
2018-Feb-15 16:59N 53°34' E 009°44'0 0.0
2018-Feb-15 16:29N 53°34' E 009°44'0 0.0
2018-Feb-15 15:59N 53°34' E 009°44'0 0.0
2018-Feb-15 15:29N 53°34' E 009°44'0 0.0
2018-Feb-15 14:59N 53°34' E 009°44'0 0.0
2018-Feb-15 14:29N 53°34' E 009°44'0 0.0
2018-Feb-15 13:59N 53°34' E 009°44'0 0.0
2018-Feb-15 13:29N 53°34' E 009°44'0 0.0
2018-Feb-15 12:58N 53°34' E 009°44'0 0.0
2018-Feb-15 12:29N 53°34' E 009°44'0 0.0
2018-Feb-15 11:59N 53°34' E 009°44'0 0.0
2018-Feb-15 11:29N 53°34' E 009°44'0 0.0
2018-Feb-15 10:59N 53°34' E 009°44'0 0.0
2018-Feb-15 10:28N 53°34' E 009°44'0 0.0
2018-Feb-15 09:59N 53°34' E 009°44'0 0.0
2018-Feb-15 09:29N 53°34' E 009°44'0 0.0
2018-Feb-15 08:59N 53°34' E 009°44'0 0.0
2018-Feb-15 08:29N 53°34' E 009°44'0 0.0
2018-Feb-15 07:59N 53°34' E 009°44'0 0.0
2018-Feb-15 07:29N 53°34' E 009°44'0 0.0
2018-Feb-15 06:58N 53°34' E 009°44'0 0.0
2018-Feb-15 06:29N 53°34' E 009°44'0 0.0
2018-Feb-15 05:59N 53°34' E 009°44'0 0.0
2018-Feb-15 05:29N 53°34' E 009°44'0 0.0
2018-Feb-15 04:59N 53°34' E 009°44'0 0.0
2018-Feb-15 04:29N 53°34' E 009°44'0 0.0
2018-Feb-15 03:59N 53°34' E 009°44'0 0.0
2018-Feb-15 03:29N 53°34' E 009°44'0 0.0
2018-Feb-15 02:59N 53°34' E 009°44'0 0.0
2018-Feb-15 02:29N 53°34' E 009°44'0 0.0
2018-Feb-15 01:59N 53°34' E 009°44'0 0.0
2018-Feb-15 01:28N 53°34' E 009°44'0 0.0
2018-Feb-15 00:59N 53°34' E 009°44'0 0.0
2018-Feb-15 00:28N 53°34' E 009°44'0 0.0
2018-Feb-14 23:59N 53°34' E 009°44'0 0.0
2018-Feb-14 23:28N 53°34' E 009°44'0 0.0
2018-Feb-14 22:58N 53°34' E 009°44'0 0.0
2018-Feb-14 22:29N 53°34' E 009°44'0 0.0
2018-Feb-14 21:59N 53°34' E 009°44'0 0.0
2018-Feb-14 21:28N 53°34' E 009°44'0 0.0
2018-Feb-14 20:59N 53°34' E 009°44'0 0.0
2018-Feb-14 20:28N 53°34' E 009°44'0 0.0
2018-Feb-14 19:58N 53°34' E 009°44'0 0.0
2018-Feb-14 19:28N 53°34' E 009°44'0 0.0
2018-Feb-14 18:59N 53°34' E 009°44'0 0.0
2018-Feb-14 18:28N 53°34' E 009°44'0 0.0
2018-Feb-14 17:58N 53°34' E 009°44'0 0.0
2018-Feb-14 17:28N 53°34' E 009°44'0 0.0
2018-Feb-14 16:58N 53°34' E 009°44'0 0.0
2018-Feb-14 16:29N 53°34' E 009°44'0 0.0
2018-Feb-14 15:58N 53°34' E 009°44'0 0.0
2018-Feb-14 15:28N 53°34' E 009°44'0 0.0
2018-Feb-14 14:58N 53°34' E 009°44'0 0.0
2018-Feb-14 14:28N 53°34' E 009°44'0 0.0
2018-Feb-14 13:58N 53°34' E 009°44'0 0.0
2018-Feb-14 13:28N 53°34' E 009°44'0 0.0
2018-Feb-14 12:59N 53°34' E 009°44'0 0.0
2018-Feb-14 12:28N 53°34' E 009°44'0 0.0
2018-Feb-14 11:59N 53°34' E 009°44'0 0.0
2018-Feb-14 11:29N 53°34' E 009°44'0 0.0
2018-Feb-14 10:58N 53°34' E 009°44'0 0.0
2018-Feb-14 10:28N 53°34' E 009°44'0 0.0
2018-Feb-14 09:59N 53°34' E 009°44'0 0.0
2018-Feb-14 09:28N 53°34' E 009°44'0 0.0
2018-Feb-14 08:58N 53°34' E 009°44'0 0.0
2018-Feb-14 08:28N 53°34' E 009°44'0 0.0
2018-Feb-14 07:58N 53°34' E 009°44'0 0.0
2018-Feb-14 07:28N 53°34' E 009°44'0 0.0
2018-Feb-14 06:58N 53°34' E 009°44'0 0.0
2018-Feb-14 06:28N 53°34' E 009°44'0 0.0
2018-Feb-14 05:58N 53°34' E 009°44'0 0.0
2018-Feb-14 05:28N 53°34' E 009°44'0 0.0
2018-Feb-14 04:58N 53°34' E 009°44'0 0.0
2018-Feb-14 04:28N 53°34' E 009°44'0 0.0
2018-Feb-14 03:58N 53°34' E 009°44'0 0.0
2018-Feb-14 03:28N 53°34' E 009°44'0 0.0
2018-Feb-14 02:58N 53°34' E 009°44'0 0.0
2018-Feb-14 02:28N 53°34' E 009°44'0 0.0
2018-Feb-14 01:58N 53°34' E 009°44'0 0.0
2018-Feb-14 01:28N 53°34' E 009°44'0 0.0
2018-Feb-14 00:58N 53°34' E 009°44'0 0.0
2018-Feb-14 00:28N 53°34' E 009°44'0 0.0
2018-Feb-13 23:58N 53°34' E 009°44'0 0.0
2018-Feb-13 23:28N 53°34' E 009°44'0 0.0
2018-Feb-13 22:58N 53°34' E 009°44'0 0.0
2018-Feb-13 22:28N 53°34' E 009°44'0 0.0
2018-Feb-13 21:58N 53°34' E 009°44'0 0.0
2018-Feb-13 21:28N 53°34' E 009°44'0 0.0
2018-Feb-13 20:58N 53°34' E 009°44'0 0.0
2018-Feb-13 20:28N 53°34' E 009°44'0 0.0
2018-Feb-13 19:58N 53°34' E 009°44'0 0.0
2018-Feb-13 19:28N 53°34' E 009°44'0 0.0
2018-Feb-13 18:58N 53°34' E 009°44'0 0.0
2018-Feb-13 18:28N 53°34' E 009°44'0 0.0
2018-Feb-13 17:58N 53°34' E 009°44'0 0.0
2018-Feb-13 17:28N 53°34' E 009°44'0 0.0
2018-Feb-13 16:58N 53°34' E 009°44'0 0.0
2018-Feb-13 16:28N 53°34' E 009°44'0 0.0
2018-Feb-13 15:58N 53°34' E 009°44'0 0.0
2018-Feb-13 15:28N 53°34' E 009°44'0 0.0
2018-Feb-13 14:58N 53°34' E 009°44'0 0.0
2018-Feb-13 14:28N 53°34' E 009°44'0 0.0
2018-Feb-13 13:58N 53°34' E 009°44'0 0.0
2018-Feb-13 13:28N 53°34' E 009°44'0 0.0
2018-Feb-13 12:58N 53°34' E 009°44'0 0.0
2018-Feb-13 12:28N 53°34' E 009°44'0 0.0
2018-Feb-13 11:58N 53°34' E 009°44'0 0.0
2018-Feb-13 11:28N 53°34' E 009°44'0 0.0
2018-Feb-13 10:58N 53°34' E 009°44'0 0.0
2018-Feb-13 10:28N 53°34' E 009°44'0 0.0
2018-Feb-13 09:58N 53°34' E 009°44'0 0.0
2018-Feb-13 09:28N 53°34' E 009°44'0 0.0
2018-Feb-13 08:58N 53°34' E 009°44'0 0.0
2018-Feb-13 08:28N 53°34' E 009°44'0 0.0
2018-Feb-13 07:58N 53°34' E 009°44'0 0.0
2018-Feb-13 07:28N 53°34' E 009°44'0 0.0
2018-Feb-13 06:58N 53°34' E 009°44'0 0.0
2018-Feb-13 06:28N 53°34' E 009°44'0 0.0
2018-Feb-13 05:58N 53°34' E 009°44'0 0.0
2018-Feb-13 05:28N 53°34' E 009°44'0 0.0
2018-Feb-13 04:58N 53°34' E 009°44'0 0.0
2018-Feb-13 04:28N 53°34' E 009°44'0 0.0
2018-Feb-13 03:58N 53°34' E 009°44'0 0.0
2018-Feb-13 03:28N 53°34' E 009°44'0 0.0
2018-Feb-13 02:58N 53°34' E 009°44'0 0.0
2018-Feb-13 02:28N 53°34' E 009°44'0 0.0
2018-Feb-13 01:58N 53°34' E 009°44'0 0.0
2018-Feb-13 01:28N 53°34' E 009°44'0 0.0
2018-Feb-13 00:58N 53°34' E 009°44'0 0.0
2018-Feb-13 00:28N 53°34' E 009°44'0 0.0
2018-Feb-12 23:58N 53°34' E 009°44'0 0.0
2018-Feb-12 23:28N 53°34' E 009°44'0 0.0
2018-Feb-12 22:58N 53°34' E 009°44'0 0.0
2018-Feb-12 22:28N 53°34' E 009°44'0 0.0
2018-Feb-12 21:58N 53°34' E 009°44'0 0.0
2018-Feb-12 21:28N 53°34' E 009°44'0 0.0
2018-Feb-12 20:58N 53°34' E 009°44'0 0.0
2018-Feb-12 20:28N 53°34' E 009°44'0 0.0
2018-Feb-12 19:58N 53°34' E 009°44'0 0.0
2018-Feb-12 19:28N 53°34' E 009°44'0 0.0
2018-Feb-12 18:58N 53°34' E 009°44'0 0.0
2018-Feb-12 18:28N 53°34' E 009°44'0 0.0
2018-Feb-12 17:58N 53°34' E 009°44'0 0.0
2018-Feb-12 17:28N 53°34' E 009°44'0 0.0
2018-Feb-12 16:58N 53°34' E 009°44'0 0.0
2018-Feb-12 16:28N 53°34' E 009°44'0 0.0
2018-Feb-12 15:58N 53°34' E 009°44'0 0.0
2018-Feb-12 15:28N 53°34' E 009°44'0 0.0
2018-Feb-12 14:58N 53°34' E 009°44'0 0.0
2018-Feb-12 14:28N 53°34' E 009°44'0 0.0
2018-Feb-12 13:58N 53°34' E 009°44'0 0.0
2018-Feb-12 13:28N 53°34' E 009°44'0 0.0
2018-Feb-12 12:58N 53°34' E 009°44'0 0.0
2018-Feb-12 12:28N 53°34' E 009°44'0 0.0
2018-Feb-12 11:58N 53°34' E 009°44'0 0.0
2018-Feb-12 11:28N 53°34' E 009°44'0 0.0
2018-Feb-12 10:58N 53°34' E 009°44'0 0.0
2018-Feb-12 10:28N 53°34' E 009°44'0 0.0
2018-Feb-12 09:58N 53°34' E 009°44'0 0.0
2018-Feb-12 09:28N 53°34' E 009°44'0 0.0
2018-Feb-12 08:58N 53°34' E 009°44'0 0.0
2018-Feb-12 08:28N 53°34' E 009°44'0 0.0
2018-Feb-12 07:58N 53°34' E 009°44'0 0.0
2018-Feb-12 07:28N 53°34' E 009°44'0 0.0
2018-Feb-12 06:58N 53°34' E 009°44'0 0.0
2018-Feb-12 06:28N 53°34' E 009°44'0 0.0
2018-Feb-12 05:58N 53°34' E 009°44'0 0.0
2018-Feb-12 05:28N 53°34' E 009°44'0 0.0
2018-Feb-12 04:58N 53°34' E 009°44'0 0.0
2018-Feb-12 04:28N 53°34' E 009°44'0 0.0
2018-Feb-12 03:58N 53°34' E 009°44'0 0.0
2018-Feb-12 03:28N 53°34' E 009°44'0 0.0
2018-Feb-12 02:58N 53°34' E 009°44'0 0.0
2018-Feb-12 02:28N 53°34' E 009°44'0 0.0
2018-Feb-12 01:58N 53°34' E 009°44'0 0.0
2018-Feb-12 01:28N 53°34' E 009°44'0 0.0
2018-Feb-12 00:58N 53°34' E 009°44'0 0.0
2018-Feb-12 00:28N 53°34' E 009°44'0 0.0
2018-Feb-11 23:58N 53°34' E 009°44'0 0.0
2018-Feb-11 23:28N 53°34' E 009°44'0 0.0
2018-Feb-11 22:58N 53°34' E 009°44'0 0.0
2018-Feb-11 22:28N 53°34' E 009°44'0 0.0
2018-Feb-11 21:58N 53°34' E 009°44'0 0.0
2018-Feb-11 21:28N 53°34' E 009°44'0 0.0
2018-Feb-11 20:58N 53°34' E 009°44'0 0.0
2018-Feb-11 20:28N 53°34' E 009°44'0 0.0
2018-Feb-11 19:58N 53°34' E 009°44'0 0.0
2018-Feb-11 19:28N 53°34' E 009°44'0 0.0
2018-Feb-11 18:58N 53°34' E 009°44'0 0.0
2018-Feb-11 18:28N 53°34' E 009°44'0 0.0
2018-Feb-11 17:58N 53°34' E 009°44'0 0.0
2018-Feb-11 17:28N 53°34' E 009°44'0 0.0
2018-Feb-11 16:58N 53°34' E 009°44'0 0.0
2018-Feb-11 16:28N 53°34' E 009°44'0 0.0
2018-Feb-11 15:58N 53°34' E 009°44'0 0.0
2018-Feb-11 15:28N 53°34' E 009°44'0 0.0
2018-Feb-11 14:58N 53°34' E 009°44'0 0.0
2018-Feb-11 14:28N 53°34' E 009°44'0 0.0
2018-Feb-11 13:58N 53°34' E 009°44'0 0.0
2018-Feb-11 13:28N 53°34' E 009°44'0 0.0
2018-Feb-11 12:58N 53°34' E 009°44'0 0.0
2018-Feb-11 12:28N 53°34' E 009°44'0 0.0
2018-Feb-11 11:58N 53°34' E 009°44'0 0.0
2018-Feb-11 11:28N 53°34' E 009°44'0 0.0
2018-Feb-11 10:58N 53°34' E 009°44'0 0.0
2018-Feb-11 10:28N 53°34' E 009°44'0 0.0
2018-Feb-11 09:58N 53°34' E 009°44'0 0.0
2018-Feb-11 09:28N 53°34' E 009°44'0 0.0
2018-Feb-11 08:58N 53°34' E 009°44'0 0.0
2018-Feb-11 08:28N 53°34' E 009°44'0 0.0
2018-Feb-11 07:58N 53°34' E 009°44'0 0.0
2018-Feb-11 07:28N 53°34' E 009°44'0 0.0
2018-Feb-11 06:58N 53°34' E 009°44'0 0.0
2018-Feb-11 06:28N 53°34' E 009°44'0 0.0
2018-Feb-11 05:58N 53°34' E 009°44'0 0.0
2018-Feb-11 05:28N 53°34' E 009°44'0 0.0
2018-Feb-11 04:58N 53°34' E 009°44'0 0.0
2018-Feb-11 04:28N 53°34' E 009°44'0 0.0
2018-Feb-11 03:58N 53°34' E 009°44'0 0.0
2018-Feb-11 03:28N 53°34' E 009°44'0 0.0
2018-Feb-11 02:58N 53°34' E 009°44'0 0.0
2018-Feb-11 02:28N 53°34' E 009°44'0 0.0
2018-Feb-11 01:58N 53°34' E 009°44'0 0.0
2018-Feb-11 01:28N 53°34' E 009°44'0 0.0
2018-Feb-11 00:58N 53°34' E 009°44'0 0.0
2018-Feb-11 00:28N 53°34' E 009°44'0 0.0
2018-Feb-10 23:58N 53°34' E 009°44'0 0.0
2018-Feb-10 23:28N 53°34' E 009°44'0 0.0
2018-Feb-10 22:58N 53°34' E 009°44'0 0.0
2018-Feb-10 22:28N 53°34' E 009°44'0 0.0
2018-Feb-10 21:58N 53°34' E 009°44'0 0.0
2018-Feb-10 21:28N 53°34' E 009°44'0 0.0
2018-Feb-10 20:58N 53°34' E 009°44'0 0.0
2018-Feb-10 20:28N 53°34' E 009°44'0 0.0
2018-Feb-10 19:58N 53°34' E 009°44'0 0.0
2018-Feb-10 19:28N 53°34' E 009°44'0 0.0
2018-Feb-10 18:58N 53°34' E 009°44'0 0.0
2018-Feb-10 18:28N 53°34' E 009°44'0 0.0
2018-Feb-10 17:58N 53°34' E 009°44'0 0.0
2018-Feb-10 17:28N 53°34' E 009°44'0 0.0
2018-Feb-10 16:58N 53°34' E 009°44'0 0.0
2018-Feb-10 16:28N 53°34' E 009°44'0 0.0
2018-Feb-10 15:58N 53°34' E 009°44'0 0.0
2018-Feb-10 15:28N 53°34' E 009°44'0 0.0
2018-Feb-10 14:58N 53°34' E 009°44'0 0.0
2018-Feb-10 14:28N 53°34' E 009°44'0 0.0
2018-Feb-10 13:58N 53°34' E 009°44'0 0.0
2018-Feb-10 13:28N 53°34' E 009°44'0 0.0
2018-Feb-10 12:58N 53°34' E 009°44'0 0.0
2018-Feb-10 12:28N 53°34' E 009°44'0 0.0
2018-Feb-10 11:58N 53°34' E 009°44'0 0.0
2018-Feb-10 11:28N 53°34' E 009°44'0 0.0
2018-Feb-10 10:58N 53°34' E 009°44'0 0.0
2018-Feb-10 10:25N 53°34' E 009°44'0 0.0
2018-Feb-10 09:58N 53°34' E 009°44'0 0.0
2018-Feb-10 09:28N 53°34' E 009°44'0 0.0
2018-Feb-10 08:58N 53°34' E 009°44'0 0.0
2018-Feb-10 08:28N 53°34' E 009°44'0 0.0
2018-Feb-10 07:58N 53°34' E 009°44'0 0.0
2018-Feb-10 07:28N 53°34' E 009°44'0 0.0
2018-Feb-10 06:58N 53°34' E 009°44'0 0.0
2018-Feb-10 06:28N 53°34' E 009°44'0 0.0
2018-Feb-10 05:58N 53°34' E 009°44'0 0.0
2018-Feb-10 05:28N 53°34' E 009°44'0 0.0
2018-Feb-10 04:58N 53°34' E 009°44'0 0.0
2018-Feb-10 04:28N 53°34' E 009°44'0 0.0
2018-Feb-10 03:58N 53°34' E 009°44'0 0.0
2018-Feb-10 03:28N 53°34' E 009°44'0 0.0
2018-Feb-10 02:58N 53°34' E 009°44'0 0.0
2018-Feb-10 02:28N 53°34' E 009°44'0 0.0
2018-Feb-10 01:58N 53°34' E 009°44'0 0.0
2018-Feb-10 01:28N 53°34' E 009°44'0 0.0
2018-Feb-10 00:58N 53°34' E 009°44'0 0.0
2018-Feb-10 00:28N 53°34' E 009°44'0 0.0
2018-Feb-09 23:58N 53°34' E 009°44'0 0.0
2018-Feb-09 23:28N 53°34' E 009°44'0 0.0
2018-Feb-09 22:58N 53°34' E 009°44'0 0.0
2018-Feb-09 22:46N 53°34' E 009°44'  

Dump ship's entire track history